Terminal Aerodrome Forecast
Issued by NWS

Home | Current Version | Previous Version | Text Only | Print | Product List | Glossary On
Versions: 1 2 3 4 5 6 7 8 9 10 11 12 13 14 15
000
FTUS45 KVEF 231729
TAFDAG
TAF
KDAG 231729Z 2318/2418 25015G25KT P6SM -SHRA SCT040 BKN070
     FM240100 25020G30KT P6SM FEW040 FEW080
     FM240900 26015G25KT P6SM FEW040 FEW150=

USA.gov is the U.S. government's official web portal to all federal, state and local government web resources and services.